sensor_id;sensor_type;location;lat;lon;timestamp;temperature;humidity
72650;SHT31;61467;50.674;4.618;2023-06-01T00:01:53;17.86;66.26
72650;SHT31;61467;50.674;4.618;2023-06-01T00:04:20;18.29;64.33
72650;SHT31;61467;50.674;4.618;2023-06-01T00:06:47;18.57;62.49
72650;SHT31;61467;50.674;4.618;2023-06-01T00:09:15;18.50;63.65
72650;SHT31;61467;50.674;4.618;2023-06-01T00:11:42;18.32;64.28
72650;SHT31;61467;50.674;4.618;2023-06-01T00:14:09;17.79;66.02
72650;SHT31;61467;50.674;4.618;2023-06-01T00:16:36;17.93;64.85
72650;SHT31;61467;50.674;4.618;2023-06-01T00:19:03;18.05;64.90
72650;SHT31;61467;50.674;4.618;2023-06-01T00:21:30;17.93;65.10
72650;SHT31;61467;50.674;4.618;2023-06-01T00:23:58;17.88;65.37
72650;SHT31;61467;50.674;4.618;2023-06-01T00:26:27;18.06;64.56
72650;SHT31;61467;50.674;4.618;2023-06-01T00:28:55;17.91;65.14
72650;SHT31;61467;50.674;4.618;2023-06-01T00:31:22;17.93;64.66
72650;SHT31;61467;50.674;4.618;2023-06-01T00:33:49;17.67;65.53
72650;SHT31;61467;50.674;4.618;2023-06-01T00:36:16;17.75;65.33
72650;SHT31;61467;50.674;4.618;2023-06-01T00:38:43;17.71;65.28
72650;SHT31;61467;50.674;4.618;2023-06-01T00:41:12;17.88;64.53
72650;SHT31;61467;50.674;4.618;2023-06-01T00:43:41;17.89;64.51
72650;SHT31;61467;50.674;4.618;2023-06-01T00:46:07;17.58;65.57
72650;SHT31;61467;50.674;4.618;2023-06-01T00:48:35;17.91;64.10
72650;SHT31;61467;50.674;4.618;2023-06-01T00:51:02;17.96;63.70
72650;SHT31;61467;50.674;4.618;2023-06-01T00:53:29;17.96;63.98
72650;SHT31;61467;50.674;4.618;2023-06-01T00:55:56;17.95;63.85
72650;SHT31;61467;50.674;4.618;2023-06-01T00:58:23;17.86;63.96
72650;SHT31;61467;50.674;4.618;2023-06-01T01:00:51;17.62;65.03
72650;SHT31;61467;50.674;4.618;2023-06-01T01:03:19;17.89;63.96
72650;SHT31;61467;50.674;4.618;2023-06-01T01:05:47;17.62;64.99
72650;SHT31;61467;50.674;4.618;2023-06-01T01:08:21;17.64;64.66
72650;SHT31;61467;50.674;4.618;2023-06-01T01:10:56;17.79;63.94
72650;SHT31;61467;50.674;4.618;2023-06-01T01:13:27;17.51;65.09
72650;SHT31;61467;50.674;4.618;2023-06-01T01:16:03;17.79;64.01
72650;SHT31;61467;50.674;4.618;2023-06-01T01:18:35;17.78;63.88
72650;SHT31;61467;50.674;4.618;2023-06-01T01:21:03;17.70;64.08
72650;SHT31;61467;50.674;4.618;2023-06-01T01:24:15;17.67;64.02
72650;SHT31;61467;50.674;4.618;2023-06-01T01:26:56;17.40;64.97
72650;SHT31;61467;50.674;4.618;2023-06-01T01:29:28;17.34;64.77
72650;SHT31;61467;50.674;4.618;2023-06-01T01:31:59;17.23;65.53
72650;SHT31;61467;50.674;4.618;2023-06-01T01:34:27;16.82;66.80
72650;SHT31;61467;50.674;4.618;2023-06-01T01:36:55;16.87;66.40
72650;SHT31;61467;50.674;4.618;2023-06-01T01:39:21;16.93;66.40
72650;SHT31;61467;50.674;4.618;2023-06-01T01:41:48;16.84;66.22
72650;SHT31;61467;50.674;4.618;2023-06-01T01:44:15;16.38;68.28
72650;SHT31;61467;50.674;4.618;2023-06-01T01:46:52;16.77;66.80
72650;SHT31;61467;50.674;4.618;2023-06-01T01:49:24;16.94;65.99
72650;SHT31;61467;50.674;4.618;2023-06-01T01:51:57;17.23;64.92
72650;SHT31;61467;50.674;4.618;2023-06-01T01:54:27;17.19;64.99
72650;SHT31;61467;50.674;4.618;2023-06-01T01:56:57;16.84;65.87
72650;SHT31;61467;50.674;4.618;2023-06-01T01:59:26;16.86;65.87
72650;SHT31;61467;50.674;4.618;2023-06-01T02:01:55;17.13;64.93
72650;SHT31;61467;50.674;4.618;2023-06-01T02:04:22;17.03;65.23
72650;SHT31;61467;50.674;4.618;2023-06-01T02:06:49;16.55;66.57
72650;SHT31;61467;50.674;4.618;2023-06-01T02:09:16;16.82;65.81
72650;SHT31;61467;50.674;4.618;2023-06-01T02:11:43;16.82;65.71
72650;SHT31;61467;50.674;4.618;2023-06-01T02:14:10;16.77;65.84
72650;SHT31;61467;50.674;4.618;2023-06-01T02:16:36;16.69;66.02
72650;SHT31;61467;50.674;4.618;2023-06-01T02:19:05;16.86;65.44
72650;SHT31;61467;50.674;4.618;2023-06-01T02:21:36;16.82;65.50
72650;SHT31;61467;50.674;4.618;2023-06-01T02:24:03;16.79;65.39
72650;SHT31;61467;50.674;4.618;2023-06-01T02:26:33;16.63;65.83
72650;SHT31;61467;50.674;4.618;2023-06-01T02:29:00;16.62;66.10
72650;SHT31;61467;50.674;4.618;2023-06-01T02:31:30;16.61;65.91
72650;SHT31;61467;50.674;4.618;2023-06-01T02:33:57;16.58;65.92
72650;SHT31;61467;50.674;4.618;2023-06-01T02:36:28;16.55;66.05
72650;SHT31;61467;50.674;4.618;2023-06-01T02:38:55;16.44;66.27
72650;SHT31;61467;50.674;4.618;2023-06-01T02:41:22;16.40;66.48
72650;SHT31;61467;50.674;4.618;2023-06-01T02:43:49;16.53;66.01
72650;SHT31;61467;50.674;4.618;2023-06-01T02:46:17;16.41;66.50
72650;SHT31;61467;50.674;4.618;2023-06-01T02:48:44;16.44;66.28
72650;SHT31;61467;50.674;4.618;2023-06-01T02:51:11;16.29;66.66
72650;SHT31;61467;50.674;4.618;2023-06-01T02:53:40;16.11;67.37
72650;SHT31;61467;50.674;4.618;2023-06-01T02:56:08;16.07;67.50
72650;SHT31;61467;50.674;4.618;2023-06-01T02:58:34;15.90;67.70
72650;SHT31;61467;50.674;4.618;2023-06-01T03:01:01;15.86;68.09
72650;SHT31;61467;50.674;4.618;2023-06-01T03:03:28;15.91;67.73
72650;SHT31;61467;50.674;4.618;2023-06-01T03:05:56;16.04;67.64
72650;SHT31;61467;50.674;4.618;2023-06-01T03:08:22;15.91;67.73
72650;SHT31;61467;50.674;4.618;2023-06-01T03:10:52;15.86;67.75
72650;SHT31;61467;50.674;4.618;2023-06-01T03:13:18;15.93;67.58
72650;SHT31;61467;50.674;4.618;2023-06-01T03:15:45;15.89;67.44
72650;SHT31;61467;50.674;4.618;2023-06-01T03:18:12;15.87;67.53
72650;SHT31;61467;50.674;4.618;2023-06-01T03:20:39;16.00;66.96
72650;SHT31;61467;50.674;4.618;2023-06-01T03:23:06;15.97;67.25
72650;SHT31;61467;50.674;4.618;2023-06-01T03:25:32;15.84;67.48
72650;SHT31;61467;50.674;4.618;2023-06-01T03:28:01;15.81;67.32
72650;SHT31;61467;50.674;4.618;2023-06-01T03:30:28;15.83;67.36
72650;SHT31;61467;50.674;4.618;2023-06-01T03:32:55;15.87;67.00
72650;SHT31;61467;50.674;4.618;2023-06-01T03:35:22;15.57;67.61
72650;SHT31;61467;50.674;4.618;2023-06-01T03:37:49;15.67;67.61
72650;SHT31;61467;50.674;4.618;2023-06-01T03:40:15;15.59;67.72
72650;SHT31;61467;50.674;4.618;2023-06-01T03:42:43;15.25;69.13
72650;SHT31;61467;50.674;4.618;2023-06-01T03:45:12;15.29;68.82
72650;SHT31;61467;50.674;4.618;2023-06-01T03:47:39;15.32;68.67
72650;SHT31;61467;50.674;4.618;2023-06-01T03:50:08;15.44;68.37
72650;SHT31;61467;50.674;4.618;2023-06-01T03:52:35;15.40;68.19
72650;SHT31;61467;50.674;4.618;2023-06-01T03:55:04;15.36;68.20
72650;SHT31;61467;50.674;4.618;2023-06-01T03:57:33;15.22;68.99
72650;SHT31;61467;50.674;4.618;2023-06-01T04:00:00;15.01;69.62
72650;SHT31;61467;50.674;4.618;2023-06-01T04:02:30;15.15;69.16
72650;SHT31;61467;50.674;4.618;2023-06-01T04:04:56;15.25;68.77
72650;SHT31;61467;50.674;4.618;2023-06-01T04:07:26;15.15;69.45
72650;SHT31;61467;50.674;4.618;2023-06-01T04:09:52;15.18;68.99
72650;SHT31;61467;50.674;4.618;2023-06-01T04:12:19;14.36;71.77
72650;SHT31;61467;50.674;4.618;2023-06-01T04:14:50;14.51;71.45
72650;SHT31;61467;50.674;4.618;2023-06-01T04:17:17;14.68;70.99
72650;SHT31;61467;50.674;4.618;2023-06-01T04:19:46;14.70;70.54
72650;SHT31;61467;50.674;4.618;2023-06-01T04:22:13;14.84;70.33
72650;SHT31;61467;50.674;4.618;2023-06-01T04:24:40;14.88;69.63
72650;SHT31;61467;50.674;4.618;2023-06-01T04:27:07;15.04;69.44
72650;SHT31;61467;50.674;4.618;2023-06-01T04:29:34;14.57;70.98
72650;SHT31;61467;50.674;4.618;2023-06-01T04:32:05;14.89;69.94
72650;SHT31;61467;50.674;4.618;2023-06-01T04:34:32;14.71;70.59
72650;SHT31;61467;50.674;4.618;2023-06-01T04:37:00;14.63;71.26
72650;SHT31;61467;50.674;4.618;2023-06-01T04:39:29;14.73;70.78
72650;SHT31;61467;50.674;4.618;2023-06-01T04:41:56;14.67;70.47
72650;SHT31;61467;50.674;4.618;2023-06-01T04:44:23;14.61;71.31
72650;SHT31;61467;50.674;4.618;2023-06-01T04:46:50;14.68;71.05
72650;SHT31;61467;50.674;4.618;2023-06-01T04:49:17;15.29;69.91
72650;SHT31;61467;50.674;4.618;2023-06-01T04:51:44;15.60;67.33
72650;SHT31;61467;50.674;4.618;2023-06-01T04:54:12;15.67;67.56
72650;SHT31;61467;50.674;4.618;2023-06-01T04:56:44;15.69;67.21
72650;SHT31;61467;50.674;4.618;2023-06-01T04:59:11;15.53;67.20
72650;SHT31;61467;50.674;4.618;2023-06-01T05:01:38;15.28;68.25
72650;SHT31;61467;50.674;4.618;2023-06-01T05:04:04;15.11;68.88
72650;SHT31;61467;50.674;4.618;2023-06-01T05:06:31;15.35;68.46
72650;SHT31;61467;50.674;4.618;2023-06-01T05:08:58;15.22;68.58
72650;SHT31;61467;50.674;4.618;2023-06-01T05:11:26;15.31;68.19
72650;SHT31;61467;50.674;4.618;2023-06-01T05:13:53;15.36;68.04
72650;SHT31;61467;50.674;4.618;2023-06-01T05:16:27;14.91;69.73
72650;SHT31;61467;50.674;4.618;2023-06-01T05:18:54;14.94;69.52
72650;SHT31;61467;50.674;4.618;2023-06-01T05:21:21;14.78;70.19
72650;SHT31;61467;50.674;4.618;2023-06-01T05:23:48;14.51;71.65
72650;SHT31;61467;50.674;4.618;2023-06-01T05:26:15;14.70;70.57
72650;SHT31;61467;50.674;4.618;2023-06-01T05:28:43;14.75;70.01
72650;SHT31;61467;50.674;4.618;2023-06-01T05:31:10;14.81;70.29
72650;SHT31;61467;50.674;4.618;2023-06-01T05:33:37;15.09;69.69
72650;SHT31;61467;50.674;4.618;2023-06-01T05:36:05;15.46;68.43
72650;SHT31;61467;50.674;4.618;2023-06-01T05:38:32;15.35;68.01
72650;SHT31;61467;50.674;4.618;2023-06-01T05:40:59;15.22;68.27
72650;SHT31;61467;50.674;4.618;2023-06-01T05:43:26;14.96;69.95
72650;SHT31;61467;50.674;4.618;2023-06-01T05:45:54;15.11;69.02
72650;SHT31;61467;50.674;4.618;2023-06-01T05:48:21;14.80;69.62
72650;SHT31;61467;50.674;4.618;2023-06-01T05:50:48;15.19;68.60
72650;SHT31;61467;50.674;4.618;2023-06-01T05:53:15;15.35;68.15
72650;SHT31;61467;50.674;4.618;2023-06-01T05:55:41;15.28;68.06
72650;SHT31;61467;50.674;4.618;2023-06-01T05:58:08;15.28;67.91
72650;SHT31;61467;50.674;4.618;2023-06-01T06:00:35;15.28;68.09
72650;SHT31;61467;50.674;4.618;2023-06-01T06:03:03;15.38;67.85
72650;SHT31;61467;50.674;4.618;2023-06-01T06:05:32;15.31;68.40
72650;SHT31;61467;50.674;4.618;2023-06-01T06:07:59;15.15;68.14
72650;SHT31;61467;50.674;4.618;2023-06-01T06:10:26;15.13;68.93
72650;SHT31;61467;50.674;4.618;2023-06-01T06:12:53;15.26;68.44
72650;SHT31;61467;50.674;4.618;2023-06-01T06:15:20;14.73;69.92
72650;SHT31;61467;50.674;4.618;2023-06-01T06:17:48;14.22;72.35
72650;SHT31;61467;50.674;4.618;2023-06-01T06:20:16;14.68;70.57
72650;SHT31;61467;50.674;4.618;2023-06-01T06:22:49;15.05;69.32
72650;SHT31;61467;50.674;4.618;2023-06-01T06:25:16;15.06;69.21
72650;SHT31;61467;50.674;4.618;2023-06-01T06:27:43;14.96;69.30
72650;SHT31;61467;50.674;4.618;2023-06-01T06:30:11;15.01;69.34
72650;SHT31;61467;50.674;4.618;2023-06-01T06:32:38;15.16;69.25
72650;SHT31;61467;50.674;4.618;2023-06-01T06:35:05;15.04;69.05
72650;SHT31;61467;50.674;4.618;2023-06-01T06:37:33;14.65;70.23
72650;SHT31;61467;50.674;4.618;2023-06-01T06:40:02;14.53;70.69
72650;SHT31;61467;50.674;4.618;2023-06-01T06:42:30;14.84;70.15
72650;SHT31;61467;50.674;4.618;2023-06-01T06:44:57;15.09;68.61
72650;SHT31;61467;50.674;4.618;2023-06-01T06:47:24;15.18;68.45
72650;SHT31;61467;50.674;4.618;2023-06-01T06:49:52;15.02;68.43
72650;SHT31;61467;50.674;4.618;2023-06-01T06:52:19;14.61;70.26
72650;SHT31;61467;50.674;4.618;2023-06-01T06:54:47;14.27;71.21
72650;SHT31;61467;50.674;4.618;2023-06-01T06:57:14;14.64;70.64
72650;SHT31;61467;50.674;4.618;2023-06-01T06:59:40;14.95;69.34
72650;SHT31;61467;50.674;4.618;2023-06-01T07:02:07;14.89;69.70
72650;SHT31;61467;50.674;4.618;2023-06-01T07:04:34;14.98;68.71
72650;SHT31;61467;50.674;4.618;2023-06-01T07:07:01;15.01;69.05
72650;SHT31;61467;50.674;4.618;2023-06-01T07:09:29;14.84;69.58
72650;SHT31;61467;50.674;4.618;2023-06-01T07:11:57;15.15;68.29
72650;SHT31;61467;50.674;4.618;2023-06-01T07:14:24;14.74;70.19
72650;SHT31;61467;50.674;4.618;2023-06-01T07:16:51;14.71;70.33
72650;SHT31;61467;50.674;4.618;2023-06-01T07:19:17;14.47;70.43
72650;SHT31;61467;50.674;4.618;2023-06-01T07:21:44;14.87;70.11
72650;SHT31;61467;50.674;4.618;2023-06-01T07:24:11;14.74;69.56
72650;SHT31;61467;50.674;4.618;2023-06-01T07:26:38;14.78;69.45
72650;SHT31;61467;50.674;4.618;2023-06-01T07:29:07;15.12;68.60
72650;SHT31;61467;50.674;4.618;2023-06-01T07:31:34;14.81;69.61
72650;SHT31;61467;50.674;4.618;2023-06-01T07:34:02;15.05;68.84
72650;SHT31;61467;50.674;4.618;2023-06-01T07:36:29;15.32;68.52
72650;SHT31;61467;50.674;4.618;2023-06-01T07:39:02;15.13;68.72
72650;SHT31;61467;50.674;4.618;2023-06-01T07:41:31;15.46;67.37
72650;SHT31;61467;50.674;4.618;2023-06-01T07:43:59;15.74;66.33
72650;SHT31;61467;50.674;4.618;2023-06-01T07:46:29;15.71;66.16
72650;SHT31;61467;50.674;4.618;2023-06-01T07:48:56;15.97;65.39
72650;SHT31;61467;50.674;4.618;2023-06-01T07:51:23;15.93;65.65
72650;SHT31;61467;50.674;4.618;2023-06-01T07:53:49;15.63;66.18
72650;SHT31;61467;50.674;4.618;2023-06-01T07:56:16;15.59;66.96
72650;SHT31;61467;50.674;4.618;2023-06-01T07:58:44;15.70;66.33
72650;SHT31;61467;50.674;4.618;2023-06-01T08:01:10;15.97;65.34
72650;SHT31;61467;50.674;4.618;2023-06-01T08:03:43;15.94;66.03
72650;SHT31;61467;50.674;4.618;2023-06-01T08:06:10;15.93;66.36
72650;SHT31;61467;50.674;4.618;2023-06-01T08:08:38;16.05;65.63
72650;SHT31;61467;50.674;4.618;2023-06-01T08:11:06;16.08;66.20
72650;SHT31;61467;50.674;4.618;2023-06-01T08:13:33;16.21;65.27
72650;SHT31;61467;50.674;4.618;2023-06-01T08:16:01;16.24;64.86
72650;SHT31;61467;50.674;4.618;2023-06-01T08:18:29;16.10;65.13
72650;SHT31;61467;50.674;4.618;2023-06-01T08:20:57;16.59;63.87
72650;SHT31;61467;50.674;4.618;2023-06-01T08:23:25;16.48;63.59
72650;SHT31;61467;50.674;4.618;2023-06-01T08:25:53;16.55;63.67
72650;SHT31;61467;50.674;4.618;2023-06-01T08:28:19;15.91;65.30
72650;SHT31;61467;50.674;4.618;2023-06-01T08:30:49;16.38;64.69
72650;SHT31;61467;50.674;4.618;2023-06-01T08:33:16;16.51;63.73
72650;SHT31;61467;50.674;4.618;2023-06-01T08:35:42;16.18;64.55
72650;SHT31;61467;50.674;4.618;2023-06-01T08:38:11;15.97;65.98
72650;SHT31;61467;50.674;4.618;2023-06-01T08:40:37;16.00;65.24
72650;SHT31;61467;50.674;4.618;2023-06-01T08:43:18;16.34;63.93
72650;SHT31;61467;50.674;4.618;2023-06-01T08:45:45;16.51;63.98
72650;SHT31;61467;50.674;4.618;2023-06-01T08:48:15;16.36;64.23
72650;SHT31;61467;50.674;4.618;2023-06-01T08:50:45;16.56;62.82
72650;SHT31;61467;50.674;4.618;2023-06-01T08:53:17;16.51;64.09
72650;SHT31;61467;50.674;4.618;2023-06-01T08:55:50;16.79;63.40
72650;SHT31;61467;50.674;4.618;2023-06-01T08:58:19;17.38;61.00
72650;SHT31;61467;50.674;4.618;2023-06-01T09:00:48;17.57;60.42
72650;SHT31;61467;50.674;4.618;2023-06-01T09:03:15;17.64;60.09
72650;SHT31;61467;50.674;4.618;2023-06-01T09:05:42;17.85;59.35
72650;SHT31;61467;50.674;4.618;2023-06-01T09:08:12;17.55;60.09
72650;SHT31;61467;50.674;4.618;2023-06-01T09:10:40;17.74;59.69
72650;SHT31;61467;50.674;4.618;2023-06-01T09:13:07;18.03;58.98
72650;SHT31;61467;50.674;4.618;2023-06-01T09:15:34;18.44;57.52
72650;SHT31;61467;50.674;4.618;2023-06-01T09:18:08;18.03;58.71
72650;SHT31;61467;50.674;4.618;2023-06-01T09:20:35;18.39;56.85
72650;SHT31;61467;50.674;4.618;2023-06-01T09:23:03;18.53;57.15
72650;SHT31;61467;50.674;4.618;2023-06-01T09:25:32;18.17;57.75
72650;SHT31;61467;50.674;4.618;2023-06-01T09:28:01;18.46;57.73
72650;SHT31;61467;50.674;4.618;2023-06-01T09:30:37;18.56;56.37
72650;SHT31;61467;50.674;4.618;2023-06-01T09:33:10;18.74;56.52
72650;SHT31;61467;50.674;4.618;2023-06-01T09:35:40;18.85;56.66
72650;SHT31;61467;50.674;4.618;2023-06-01T09:38:08;18.90;56.70
72650;SHT31;61467;50.674;4.618;2023-06-01T09:40:37;18.84;56.43
72650;SHT31;61467;50.674;4.618;2023-06-01T09:43:18;18.94;56.61
72650;SHT31;61467;50.674;4.618;2023-06-01T09:45:45;18.44;57.54
72650;SHT31;61467;50.674;4.618;2023-06-01T09:48:20;18.83;56.30
72650;SHT31;61467;50.674;4.618;2023-06-01T09:50:49;18.98;56.08
72650;SHT31;61467;50.674;4.618;2023-06-01T09:53:16;18.91;55.66
72650;SHT31;61467;50.674;4.618;2023-06-01T09:55:58;18.95;55.83
72650;SHT31;61467;50.674;4.618;2023-06-01T09:58:26;19.04;55.85
72650;SHT31;61467;50.674;4.618;2023-06-01T10:00:54;19.28;54.79
72650;SHT31;61467;50.674;4.618;2023-06-01T10:03:21;19.23;55.62
72650;SHT31;61467;50.674;4.618;2023-06-01T10:05:49;19.14;56.00
72650;SHT31;61467;50.674;4.618;2023-06-01T10:08:17;19.45;55.00
72650;SHT31;61467;50.674;4.618;2023-06-01T10:10:47;19.67;54.08
72650;SHT31;61467;50.674;4.618;2023-06-01T10:13:14;19.62;54.69
72650;SHT31;61467;50.674;4.618;2023-06-01T10:15:43;19.83;53.99
72650;SHT31;61467;50.674;4.618;2023-06-01T10:18:10;19.86;53.79
72650;SHT31;61467;50.674;4.618;2023-06-01T10:20:38;19.72;53.73
72650;SHT31;61467;50.674;4.618;2023-06-01T10:23:06;19.69;53.68
72650;SHT31;61467;50.674;4.618;2023-06-01T10:25:38;19.26;54.18
72650;SHT31;61467;50.674;4.618;2023-06-01T10:28:10;19.53;53.73
72650;SHT31;61467;50.674;4.618;2023-06-01T10:30:37;19.39;54.22
72650;SHT31;61467;50.674;4.618;2023-06-01T10:33:06;19.08;53.02
72650;SHT31;61467;50.674;4.618;2023-06-01T10:35:51;19.66;52.59
72650;SHT31;61467;50.674;4.618;2023-06-01T10:38:24;19.80;51.97
72650;SHT31;61467;50.674;4.618;2023-06-01T10:40:51;19.76;51.86
72650;SHT31;61467;50.674;4.618;2023-06-01T10:43:40;19.66;52.04
72650;SHT31;61467;50.674;4.618;2023-06-01T10:49:05;19.86;52.01
72650;SHT31;61467;50.674;4.618;2023-06-01T10:51:32;20.04;51.60
72650;SHT31;61467;50.674;4.618;2023-06-01T10:54:24;20.09;51.18
72650;SHT31;61467;50.674;4.618;2023-06-01T10:57:23;20.20;49.15
72650;SHT31;61467;50.674;4.618;2023-06-01T11:00:10;19.90;50.33
72650;SHT31;61467;50.674;4.618;2023-06-01T11:02:49;19.91;50.42
72650;SHT31;61467;50.674;4.618;2023-06-01T11:05:38;20.24;49.21
72650;SHT31;61467;50.674;4.618;2023-06-01T11:08:06;20.21;49.37
72650;SHT31;61467;50.674;4.618;2023-06-01T11:10:55;20.56;49.91
72650;SHT31;61467;50.674;4.618;2023-06-01T11:13:25;20.64;50.37
72650;SHT31;61467;50.674;4.618;2023-06-01T11:16:27;20.69;50.21
72650;SHT31;61467;50.674;4.618;2023-06-01T11:18:54;20.81;46.59
72650;SHT31;61467;50.674;4.618;2023-06-01T11:21:25;21.18;46.94
72650;SHT31;61467;50.674;4.618;2023-06-01T11:23:54;21.10;46.07
72650;SHT31;61467;50.674;4.618;2023-06-01T11:26:22;21.27;47.66
72650;SHT31;61467;50.674;4.618;2023-06-01T11:28:51;21.02;45.93
72650;SHT31;61467;50.674;4.618;2023-06-01T11:31:19;21.22;45.57
72650;SHT31;61467;50.674;4.618;2023-06-01T11:33:49;21.07;44.85
72650;SHT31;61467;50.674;4.618;2023-06-01T11:36:18;21.16;45.11
72650;SHT31;61467;50.674;4.618;2023-06-01T11:38:47;21.34;44.54
72650;SHT31;61467;50.674;4.618;2023-06-01T11:41:14;21.22;45.53
72650;SHT31;61467;50.674;4.618;2023-06-01T11:43:41;21.14;45.31
72650;SHT31;61467;50.674;4.618;2023-06-01T11:46:08;21.29;44.82
72650;SHT31;61467;50.674;4.618;2023-06-01T11:48:36;21.49;44.38
72650;SHT31;61467;50.674;4.618;2023-06-01T11:51:04;21.57;44.07
72650;SHT31;61467;50.674;4.618;2023-06-01T11:53:32;21.80;44.79
72650;SHT31;61467;50.674;4.618;2023-06-01T11:56:00;22.18;44.67
72650;SHT31;61467;50.674;4.618;2023-06-01T11:58:28;22.35;42.60
72650;SHT31;61467;50.674;4.618;2023-06-01T12:00:57;22.43;42.68
72650;SHT31;61467;50.674;4.618;2023-06-01T12:03:24;22.42;43.08
72650;SHT31;61467;50.674;4.618;2023-06-01T12:05:51;22.55;41.53
72650;SHT31;61467;50.674;4.618;2023-06-01T12:08:21;22.53;41.41
72650;SHT31;61467;50.674;4.618;2023-06-01T12:10:49;22.67;41.99
72650;SHT31;61467;50.674;4.618;2023-06-01T12:13:18;22.66;41.60
72650;SHT31;61467;50.674;4.618;2023-06-01T12:15:45;22.49;41.91
72650;SHT31;61467;50.674;4.618;2023-06-01T12:18:12;22.56;42.72
72650;SHT31;61467;50.674;4.618;2023-06-01T12:20:40;22.89;41.72
72650;SHT31;61467;50.674;4.618;2023-06-01T12:23:14;22.90;40.98
72650;SHT31;61467;50.674;4.618;2023-06-01T12:25:48;22.63;42.89
72650;SHT31;61467;50.674;4.618;2023-06-01T12:28:17;22.56;41.56
72650;SHT31;61467;50.674;4.618;2023-06-01T12:30:46;22.61;41.70
72650;SHT31;61467;50.674;4.618;2023-06-01T12:33:32;22.84;40.52
72650;SHT31;61467;50.674;4.618;2023-06-01T12:35:59;22.97;42.13
72650;SHT31;61467;50.674;4.618;2023-06-01T12:38:27;23.14;41.57
72650;SHT31;61467;50.674;4.618;2023-06-01T12:41:07;23.11;39.60
72650;SHT31;61467;50.674;4.618;2023-06-01T12:43:35;22.89;41.49
72650;SHT31;61467;50.674;4.618;2023-06-01T12:46:03;23.20;40.30
72650;SHT31;61467;50.674;4.618;2023-06-01T12:48:31;23.34;40.78
72650;SHT31;61467;50.674;4.618;2023-06-01T12:50:58;23.45;42.04
72650;SHT31;61467;50.674;4.618;2023-06-01T12:53:25;23.89;41.96
72650;SHT31;61467;50.674;4.618;2023-06-01T12:55:52;23.90;40.58
72650;SHT31;61467;50.674;4.618;2023-06-01T12:58:19;24.03;41.11
72650;SHT31;61467;50.674;4.618;2023-06-01T13:00:47;24.07;40.39
72650;SHT31;61467;50.674;4.618;2023-06-01T13:03:14;24.14;39.48
72650;SHT31;61467;50.674;4.618;2023-06-01T13:05:41;24.41;39.80
72650;SHT31;61467;50.674;4.618;2023-06-01T13:08:11;24.51;38.37
72650;SHT31;61467;50.674;4.618;2023-06-01T13:10:38;24.40;38.77
72650;SHT31;61467;50.674;4.618;2023-06-01T13:13:06;24.29;39.61
72650;SHT31;61467;50.674;4.618;2023-06-01T13:15:33;24.31;40.61
72650;SHT31;61467;50.674;4.618;2023-06-01T13:18:02;24.47;39.69
72650;SHT31;61467;50.674;4.618;2023-06-01T13:20:29;24.68;39.91
72650;SHT31;61467;50.674;4.618;2023-06-01T13:22:55;24.60;39.72
72650;SHT31;61467;50.674;4.618;2023-06-01T13:25:24;24.74;39.03
72650;SHT31;61467;50.674;4.618;2023-06-01T13:27:50;24.98;36.85
72650;SHT31;61467;50.674;4.618;2023-06-01T13:30:17;24.54;37.48
72650;SHT31;61467;50.674;4.618;2023-06-01T13:32:44;24.68;39.37
72650;SHT31;61467;50.674;4.618;2023-06-01T13:35:13;24.69;36.95
72650;SHT31;61467;50.674;4.618;2023-06-01T13:37:39;24.95;37.82
72650;SHT31;61467;50.674;4.618;2023-06-01T13:40:07;24.89;37.96
72650;SHT31;61467;50.674;4.618;2023-06-01T13:42:34;24.81;37.02
72650;SHT31;61467;50.674;4.618;2023-06-01T13:45:02;24.77;37.05
72650;SHT31;61467;50.674;4.618;2023-06-01T13:47:29;24.94;37.38
72650;SHT31;61467;50.674;4.618;2023-06-01T13:49:56;25.02;36.39
72650;SHT31;61467;50.674;4.618;2023-06-01T13:52:24;25.14;35.13
72650;SHT31;61467;50.674;4.618;2023-06-01T13:54:52;25.23;37.77
72650;SHT31;61467;50.674;4.618;2023-06-01T13:57:19;25.05;36.84
72650;SHT31;61467;50.674;4.618;2023-06-01T13:59:46;25.19;36.98
72650;SHT31;61467;50.674;4.618;2023-06-01T14:02:13;25.16;36.99
72650;SHT31;61467;50.674;4.618;2023-06-01T14:04:40;25.08;37.83
72650;SHT31;61467;50.674;4.618;2023-06-01T14:07:07;24.96;36.47
72650;SHT31;61467;50.674;4.618;2023-06-01T14:09:35;24.82;36.90
72650;SHT31;61467;50.674;4.618;2023-06-01T14:12:02;24.63;36.73
72650;SHT31;61467;50.674;4.618;2023-06-01T14:14:29;24.79;37.79
72650;SHT31;61467;50.674;4.618;2023-06-01T14:16:56;24.72;37.32
72650;SHT31;61467;50.674;4.618;2023-06-01T14:19:22;25.11;37.09
72650;SHT31;61467;50.674;4.618;2023-06-01T14:21:52;25.04;36.59
72650;SHT31;61467;50.674;4.618;2023-06-01T14:24:19;24.88;36.80
72650;SHT31;61467;50.674;4.618;2023-06-01T14:26:50;25.29;36.79
72650;SHT31;61467;50.674;4.618;2023-06-01T14:29:17;25.39;35.93
72650;SHT31;61467;50.674;4.618;2023-06-01T14:31:43;25.01;35.57
72650;SHT31;61467;50.674;4.618;2023-06-01T14:34:10;25.09;35.16
72650;SHT31;61467;50.674;4.618;2023-06-01T14:36:37;25.09;34.06
72650;SHT31;61467;50.674;4.618;2023-06-01T14:39:04;24.99;34.61
72650;SHT31;61467;50.674;4.618;2023-06-01T14:41:31;24.82;35.14
72650;SHT31;61467;50.674;4.618;2023-06-01T14:44:00;25.33;35.20
72650;SHT31;61467;50.674;4.618;2023-06-01T14:46:27;25.47;35.47
72650;SHT31;61467;50.674;4.618;2023-06-01T14:48:53;25.57;34.80
72650;SHT31;61467;50.674;4.618;2023-06-01T14:51:20;25.54;33.69
72650;SHT31;61467;50.674;4.618;2023-06-01T14:53:47;25.59;34.22
72650;SHT31;61467;50.674;4.618;2023-06-01T14:56:14;25.26;35.63
72650;SHT31;61467;50.674;4.618;2023-06-01T14:58:41;25.32;35.49
72650;SHT31;61467;50.674;4.618;2023-06-01T15:01:09;25.12;38.21
72650;SHT31;61467;50.674;4.618;2023-06-01T15:03:36;25.11;34.71
72650;SHT31;61467;50.674;4.618;2023-06-01T15:06:03;24.68;34.65
72650;SHT31;61467;50.674;4.618;2023-06-01T15:08:30;24.77;38.25
72650;SHT31;61467;50.674;4.618;2023-06-01T15:10:57;24.79;36.09
72650;SHT31;61467;50.674;4.618;2023-06-01T15:13:24;25.08;35.62
72650;SHT31;61467;50.674;4.618;2023-06-01T15:15:51;24.96;36.93
72650;SHT31;61467;50.674;4.618;2023-06-01T15:18:19;24.96;36.25
72650;SHT31;61467;50.674;4.618;2023-06-01T15:20:46;25.14;37.42
72650;SHT31;61467;50.674;4.618;2023-06-01T15:23:17;25.12;36.06
72650;SHT31;61467;50.674;4.618;2023-06-01T15:25:44;25.23;37.39
72650;SHT31;61467;50.674;4.618;2023-06-01T15:28:11;25.45;33.54
72650;SHT31;61467;50.674;4.618;2023-06-01T15:30:37;25.40;34.86
72650;SHT31;61467;50.674;4.618;2023-06-01T15:33:04;24.95;35.93
72650;SHT31;61467;50.674;4.618;2023-06-01T15:35:32;25.02;36.17
72650;SHT31;61467;50.674;4.618;2023-06-01T15:37:59;25.29;36.25
72650;SHT31;61467;50.674;4.618;2023-06-01T15:40:26;25.33;37.67
72650;SHT31;61467;50.674;4.618;2023-06-01T15:42:53;25.43;37.96